createdAt,value
2018-12-17T00:01:34.247Z,40.93
2018-12-17T00:04:01.826Z,28.97
2018-12-17T00:06:29.395Z,42.20
2018-12-17T00:08:57.765Z,43.63
2018-12-17T00:11:25.336Z,38.00
2018-12-17T00:13:53.737Z,43.83
2018-12-17T00:16:21.312Z,51.93
2018-12-17T00:18:48.882Z,59.67
2018-12-17T00:21:16.501Z,62.17
2018-12-17T00:23:44.076Z,72.33
2018-12-17T00:26:11.694Z,216.90
2018-12-17T00:28:39.312Z,126.93
2018-12-17T00:31:06.859Z,112.17
2018-12-17T00:33:34.480Z,94.80
2018-12-17T00:36:02.108Z,219.30
2018-12-17T00:38:30.425Z,120.13
2018-12-17T00:40:58.034Z,179.57
2018-12-17T00:43:25.614Z,127.30
2018-12-17T00:45:53.197Z,113.83
2018-12-17T00:48:21.254Z,202.33
2018-12-17T00:50:48.816Z,217.98
2018-12-17T00:53:16.399Z,146.00
2018-12-17T00:55:44.020Z,113.33
2018-12-17T00:58:15.150Z,80.50
2018-12-17T01:00:39.438Z,71.97
2018-12-17T01:03:07.389Z,115.57
2018-12-17T01:05:35.751Z,149.97
2018-12-17T01:08:03.343Z,111.73
2018-12-17T01:10:31.713Z,95.53
2018-12-17T01:13:00.055Z,83.17
2018-12-17T01:15:27.917Z,84.10
2018-12-17T01:17:55.496Z,66.27
2018-12-17T01:20:23.069Z,44.97
2018-12-17T01:22:50.751Z,37.77
2018-12-17T01:25:18.246Z,40.00
2018-12-17T01:27:46.118Z,76.13
2018-12-17T01:30:13.694Z,39.80
2018-12-17T01:32:41.279Z,36.70
2018-12-17T01:35:08.873Z,33.80
2018-12-17T01:37:36.473Z,33.20
2018-12-17T01:40:04.376Z,33.37
2018-12-17T01:42:31.949Z,34.47
2018-12-17T01:44:59.516Z,34.97
2018-12-17T01:47:27.897Z,32.47
2018-12-17T01:49:56.246Z,33.17
2018-12-17T01:52:23.896Z,31.07
2018-12-17T01:54:51.468Z,31.17
2018-12-17T01:57:19.061Z,33.23
2018-12-17T01:59:46.669Z,31.90
2018-12-17T02:02:14.380Z,29.90
2018-12-17T02:04:42.369Z,32.40
2018-12-17T02:07:09.912Z,30.13
2018-12-17T02:09:38.281Z,41.07
2018-12-17T02:12:05.885Z,36.17
2018-12-17T02:14:33.455Z,34.60
2018-12-17T02:17:01.780Z,33.00
2018-12-17T02:19:29.354Z,29.40
2018-12-17T02:21:57.705Z,32.60
2018-12-17T02:24:25.314Z,33.33
2018-12-17T02:26:53.856Z,40.43
2018-12-17T02:29:21.806Z,43.42
2018-12-17T02:31:49.380Z,35.03
2018-12-17T02:34:16.963Z,32.27
2018-12-17T02:36:46.954Z,32.60
2018-12-17T02:39:14.529Z,33.33
2018-12-17T02:41:42.608Z,35.87
2018-12-17T02:44:10.187Z,35.70
2018-12-17T02:46:38.535Z,33.40
2018-12-17T02:49:06.163Z,32.60
2018-12-17T02:51:33.738Z,43.50
2018-12-17T02:54:01.650Z,33.37
2018-12-17T02:56:29.235Z,33.13
2018-12-17T02:58:57.578Z,27.90
2018-12-17T03:01:25.184Z,30.80
2018-12-17T03:03:52.992Z,31.20
2018-12-17T03:06:20.887Z,27.47
2018-12-17T03:08:48.500Z,29.30
2018-12-17T03:11:16.069Z,27.30
2018-12-17T03:13:43.665Z,28.67
2018-12-17T03:16:11.243Z,30.47
2018-12-17T03:18:38.856Z,27.67
2018-12-17T03:21:06.438Z,24.63
2018-12-17T03:23:34.010Z,29.67
2018-12-17T03:26:01.617Z,28.13
2018-12-17T03:28:29.224Z,27.17
2018-12-17T03:30:56.841Z,28.60
2018-12-17T03:33:24.416Z,28.03
2018-12-17T03:35:52.020Z,25.57
2018-12-17T03:38:19.583Z,23.80
2018-12-17T03:40:47.197Z,28.73
2018-12-17T03:43:15.786Z,26.37
2018-12-17T03:45:43.678Z,25.47
2018-12-17T03:48:11.254Z,23.93
2018-12-17T03:50:38.849Z,26.13
2018-12-17T03:53:06.428Z,24.07
2018-12-17T03:55:34.458Z,24.10
2018-12-17T03:58:02.038Z,27.93
2018-12-17T04:00:30.391Z,24.90
2018-12-17T04:02:57.997Z,25.70
2018-12-17T04:05:25.580Z,25.27
2018-12-17T04:07:53.191Z,26.63
2018-12-17T04:10:21.132Z,25.83
2018-12-17T04:12:48.756Z,25.60
2018-12-17T04:15:17.108Z,31.40
2018-12-17T04:17:44.689Z,25.93
2018-12-17T04:20:12.365Z,28.87
2018-12-17T04:22:39.953Z,25.87
2018-12-17T04:25:08.581Z,27.80
2018-12-17T04:27:36.153Z,25.13
2018-12-17T04:30:04.505Z,25.07
2018-12-17T04:32:32.107Z,30.90
2018-12-17T04:34:59.692Z,30.90
2018-12-17T04:37:27.700Z,26.63
2018-12-17T04:39:55.281Z,24.07
2018-12-17T04:42:22.857Z,23.07
2018-12-17T04:44:51.244Z,28.83
2018-12-17T04:47:18.856Z,21.23
2018-12-17T04:49:46.471Z,21.93
2018-12-17T04:52:14.378Z,21.80
2018-12-17T04:54:41.967Z,22.73
2018-12-17T04:57:09.597Z,30.40
2018-12-17T04:59:37.174Z,31.87
2018-12-17T05:02:05.608Z,33.05
2018-12-17T05:04:32.392Z,22.17
2018-12-17T05:06:59.967Z,24.20
2018-12-17T05:09:27.602Z,20.93
2018-12-17T05:11:55.918Z,23.17
2018-12-17T05:14:23.993Z,20.63
2018-12-17T05:16:51.574Z,21.50
2018-12-17T05:19:19.156Z,21.33
2018-12-17T05:21:47.196Z,24.00
2018-12-17T05:24:15.150Z,24.40
2018-12-17T05:26:43.125Z,18.33
2018-12-17T05:29:10.717Z,23.87
2018-12-17T05:31:38.295Z,29.53
2018-12-17T05:34:05.916Z,30.88
2018-12-17T05:36:33.491Z,23.80
2018-12-17T05:39:02.362Z,21.60
2018-12-17T05:41:29.971Z,29.08
2018-12-17T05:43:57.546Z,29.00
2018-12-17T05:46:25.172Z,20.93
2018-12-17T05:48:53.518Z,24.03
2018-12-17T05:51:21.499Z,19.77
2018-12-17T05:53:49.068Z,20.17
2018-12-17T05:56:16.648Z,24.55
2018-12-17T05:58:44.269Z,20.47
2018-12-17T06:01:11.839Z,19.17
2018-12-17T06:03:39.813Z,18.27
2018-12-17T06:06:07.385Z,17.97
2018-12-17T06:08:35.327Z,25.62
2018-12-17T06:11:02.949Z,22.57
2018-12-17T06:13:31.572Z,19.17
2018-12-17T06:16:00.078Z,22.03
2018-12-17T06:18:27.684Z,18.23
2018-12-17T06:20:55.307Z,25.17
2018-12-17T06:23:22.904Z,24.13
2018-12-17T06:25:50.480Z,21.33
2018-12-17T06:28:18.396Z,23.57
2018-12-17T06:30:46.342Z,24.67
2018-12-17T06:33:15.818Z,34.15
2018-12-17T06:35:42.404Z,30.83
2018-12-17T06:38:09.981Z,26.13
2018-12-17T06:40:37.975Z,23.97
2018-12-17T06:43:06.316Z,22.37
2018-12-17T06:45:33.893Z,24.37
2018-12-17T06:48:01.500Z,26.47
2018-12-17T06:50:29.075Z,24.37
2018-12-17T06:52:56.968Z,25.73
2018-12-17T06:55:24.553Z,27.20
2018-12-17T06:57:52.124Z,26.50
2018-12-17T07:00:20.497Z,26.43
2018-12-17T07:02:48.846Z,28.73
2018-12-17T07:05:16.463Z,24.03
2018-12-17T07:07:44.044Z,24.70
2018-12-17T07:10:11.650Z,25.63
2018-12-17T07:12:39.265Z,26.90
2018-12-17T07:15:06.847Z,22.93
2018-12-17T07:17:34.832Z,26.00
2018-12-17T07:20:02.406Z,27.27
2018-12-17T07:22:30.001Z,34.17
2018-12-17T07:24:57.612Z,31.03
2018-12-17T07:27:25.200Z,21.10
2018-12-17T07:29:53.873Z,29.13
2018-12-17T07:32:21.454Z,26.17
2018-12-17T07:34:49.022Z,33.33
2018-12-17T07:37:17.387Z,24.77
2018-12-17T07:39:44.978Z,22.73
2018-12-17T07:42:12.899Z,21.93
2018-12-17T07:44:40.478Z,23.73
2018-12-17T07:47:08.060Z,27.80
2018-12-17T07:49:35.670Z,25.77
2018-12-17T07:52:03.246Z,20.93
2018-12-17T07:54:31.305Z,18.70
2018-12-17T07:56:58.901Z,17.33
2018-12-17T07:59:26.485Z,16.33
2018-12-17T08:01:54.092Z,17.43
2018-12-17T08:04:21.671Z,14.20
2018-12-17T08:06:49.645Z,15.10
2018-12-17T08:09:17.545Z,20.40
2018-12-17T08:11:45.882Z,17.07
2018-12-17T08:14:13.489Z,16.10
2018-12-17T08:16:41.058Z,21.17
2018-12-17T08:19:09.393Z,15.77
2018-12-17T08:21:36.996Z,19.57
2018-12-17T08:24:04.542Z,18.70
2018-12-17T08:26:32.911Z,16.60
2018-12-17T08:29:01.261Z,15.77
2018-12-17T08:31:28.886Z,16.47
2018-12-17T08:33:56.483Z,12.07
2018-12-17T08:36:24.055Z,16.53
2018-12-17T08:38:52.050Z,11.73
2018-12-17T08:41:20.386Z,10.13
2018-12-17T08:43:47.957Z,11.27
2018-12-17T08:46:16.750Z,14.47
2018-12-17T08:48:44.327Z,13.03
2018-12-17T08:51:11.906Z,12.43
2018-12-17T08:53:40.300Z,15.90
2018-12-17T08:56:07.883Z,15.23
2018-12-17T08:58:35.463Z,17.07
2018-12-17T09:01:03.401Z,15.57
2018-12-17T09:03:30.985Z,11.87
2018-12-17T09:05:58.565Z,12.43
2018-12-17T09:08:26.193Z,11.47
2018-12-17T09:10:53.766Z,20.00
2018-12-17T09:13:21.355Z,17.67
2018-12-17T09:15:49.259Z,16.90
2018-12-17T09:18:17.607Z,11.30
2018-12-17T09:20:45.189Z,13.97
2018-12-17T09:23:14.080Z,13.97
2018-12-17T09:25:41.663Z,15.33
2018-12-17T09:28:10.000Z,14.77
2018-12-17T09:30:41.246Z,12.30
2018-12-17T09:33:05.551Z,10.40
2018-12-17T09:35:33.129Z,12.50
2018-12-17T09:38:01.885Z,13.00
2018-12-17T09:40:29.458Z,14.57
2018-12-17T09:42:57.046Z,17.80
2018-12-17T09:45:25.269Z,13.67
2018-12-17T09:47:52.867Z,15.03
2018-12-17T09:50:20.447Z,25.97
2018-12-17T09:52:48.627Z,16.67
2018-12-17T09:55:16.167Z,16.20
2018-12-17T09:57:44.511Z,18.77
2018-12-17T10:00:12.380Z,11.57
2018-12-17T10:02:39.958Z,11.37
2018-12-17T10:05:07.547Z,11.30
2018-12-17T10:07:35.538Z,12.33
2018-12-17T10:10:03.085Z,14.77
2018-12-17T10:12:30.689Z,12.07
2018-12-17T10:14:58.920Z,14.30
2018-12-17T10:17:27.271Z,13.53
2018-12-17T10:19:55.861Z,9.23
2018-12-17T10:22:23.945Z,11.27
2018-12-17T10:24:51.917Z,12.37
2018-12-17T10:27:19.462Z,10.60
2018-12-17T10:29:47.085Z,11.23
2018-12-17T10:32:14.661Z,12.97
2018-12-17T10:34:42.242Z,9.10
2018-12-17T10:37:10.836Z,7.60
2018-12-17T10:39:38.411Z,10.87
2018-12-17T10:42:06.796Z,10.90
2018-12-17T10:44:35.169Z,7.83
2018-12-17T10:47:02.739Z,7.87
2018-12-17T10:49:31.150Z,6.27
2018-12-17T10:51:59.042Z,9.13
2018-12-17T10:54:26.613Z,7.20
2018-12-17T10:56:54.605Z,14.27
2018-12-17T10:59:22.184Z,10.47
2018-12-17T11:02:02.935Z,11.85
2018-12-17T11:04:30.527Z,8.80
2018-12-17T11:06:58.097Z,7.50
2018-12-17T11:09:25.690Z,9.73
2018-12-17T11:11:53.583Z,9.20
2018-12-17T11:14:21.155Z,8.00
2018-12-17T11:16:48.729Z,10.70
2018-12-17T11:19:17.399Z,12.63
2018-12-17T11:21:44.978Z,7.87
2018-12-17T11:24:12.539Z,9.30
2018-12-17T11:26:40.475Z,8.67
2018-12-17T11:29:08.127Z,11.37
2018-12-17T11:31:35.617Z,9.15
2018-12-17T11:34:03.574Z,9.97
2018-12-17T11:36:32.431Z,7.13
2018-12-17T11:39:00.045Z,6.57
2018-12-17T11:41:29.199Z,9.13
2018-12-17T11:43:57.515Z,8.17
2018-12-17T11:46:25.081Z,8.77
2018-12-17T11:48:53.040Z,10.33
2018-12-17T11:51:20.616Z,8.00
2018-12-17T11:53:48.189Z,12.73
2018-12-17T11:56:16.951Z,10.33
2018-12-17T11:58:44.538Z,11.80
2018-12-17T12:01:12.911Z,11.63
2018-12-17T12:03:42.188Z,7.13
2018-12-17T12:06:14.018Z,10.00
2018-12-17T12:08:37.344Z,11.87
2018-12-17T12:11:05.708Z,9.90
2018-12-17T12:13:33.285Z,10.10
2018-12-17T12:16:02.234Z,5.83
2018-12-17T12:18:29.804Z,9.17
2018-12-17T12:20:57.404Z,9.13
2018-12-17T12:23:26.268Z,10.17
2018-12-17T12:25:53.848Z,9.50
2018-12-17T12:28:21.433Z,12.57
2018-12-17T12:30:49.035Z,10.33
2018-12-17T12:33:16.601Z,8.83
2018-12-17T12:35:44.255Z,11.17
2018-12-17T12:38:11.848Z,8.77
2018-12-17T12:40:39.418Z,10.53
2018-12-17T12:43:07.816Z,11.60
2018-12-17T12:45:35.394Z,8.95
2018-12-17T12:48:02.965Z,10.77
2018-12-17T12:50:31.529Z,8.93
2018-12-17T12:52:59.129Z,9.03
2018-12-17T12:55:27.102Z,9.93
2018-12-17T12:57:55.486Z,10.03
2018-12-17T13:00:23.060Z,6.77
2018-12-17T13:02:50.635Z,12.63
2018-12-17T13:05:18.268Z,15.73
2018-12-17T13:07:45.829Z,12.67
2018-12-17T13:10:13.444Z,12.80
2018-12-17T13:12:41.061Z,14.80
2018-12-17T13:15:08.650Z,23.23
2018-12-17T13:17:36.223Z,16.30
2018-12-17T13:20:03.883Z,21.70
2018-12-17T13:22:31.455Z,13.03
2018-12-17T13:24:59.789Z,13.17
2018-12-17T13:27:27.678Z,13.10
2018-12-17T13:29:55.259Z,21.90
2018-12-17T13:32:22.854Z,20.50
2018-12-17T13:34:51.244Z,22.63
2018-12-17T13:37:18.837Z,20.27
2018-12-17T13:39:46.409Z,17.40
2018-12-17T13:42:14.650Z,16.10
2018-12-17T13:44:42.223Z,16.73
2018-12-17T13:47:09.791Z,16.40
2018-12-17T13:49:37.414Z,12.77
2018-12-17T13:52:23.212Z,11.03
2018-12-17T13:54:50.833Z,11.73
2018-12-17T13:57:19.208Z,11.23
2018-12-17T13:59:47.541Z,9.00
2018-12-17T14:02:15.956Z,11.77
2018-12-17T14:04:43.545Z,12.63
2018-12-17T14:07:11.113Z,10.37
2018-12-17T14:09:38.766Z,12.10
2018-12-17T14:12:07.106Z,14.23
2018-12-17T14:14:34.684Z,12.03
2018-12-17T14:17:20.912Z,16.67
2018-12-17T14:19:48.515Z,14.73
2018-12-17T14:22:16.095Z,11.37
2018-12-17T14:24:43.983Z,11.00
2018-12-17T14:27:11.621Z,16.57
2018-12-17T14:29:39.192Z,12.70
2018-12-17T14:32:06.808Z,14.00
2018-12-17T14:34:34.419Z,12.13
2018-12-17T14:37:02.306Z,17.00
2018-12-17T14:39:29.880Z,12.73
2018-12-17T14:41:57.457Z,14.17
2018-12-17T14:44:34.596Z,10.00
2018-12-17T14:47:02.166Z,11.77
2018-12-17T14:49:29.756Z,13.50
2018-12-17T14:51:58.817Z,14.27
2018-12-17T14:54:26.388Z,13.17
2018-12-17T14:56:53.976Z,12.83
2018-12-17T14:59:21.564Z,8.97
2018-12-17T15:01:49.136Z,14.87
2018-12-17T15:04:17.148Z,10.83
2018-12-17T15:06:45.515Z,13.77
2018-12-17T15:09:13.084Z,11.33
2018-12-17T15:11:40.707Z,10.80
2018-12-17T15:14:08.298Z,13.23
2018-12-17T15:16:36.367Z,9.30
2018-12-17T15:19:05.944Z,12.43
2018-12-17T15:21:31.770Z,12.23
2018-12-17T15:23:59.398Z,13.23
2018-12-17T15:26:26.993Z,14.60
2018-12-17T15:28:54.563Z,11.73
2018-12-17T15:31:23.260Z,10.93
2018-12-17T15:33:50.831Z,17.87
2018-12-17T15:36:18.409Z,14.83
2018-12-17T15:38:47.074Z,10.90
2018-12-17T15:41:14.652Z,11.20
2018-12-17T15:43:42.222Z,13.77
2018-12-17T15:46:09.836Z,23.97
2018-12-17T15:48:37.410Z,10.83
2018-12-17T15:51:05.003Z,13.60
2018-12-17T15:53:33.925Z,14.33
2018-12-17T15:56:01.475Z,18.03
2018-12-17T15:58:29.039Z,18.33
2018-12-17T16:00:57.401Z,15.03
2018-12-17T16:03:25.741Z,20.00
2018-12-17T16:05:53.392Z,17.73
2018-12-17T16:08:20.982Z,15.27
2018-12-17T16:10:48.555Z,14.90
2018-12-17T16:13:16.518Z,16.13
2018-12-17T16:15:44.113Z,14.37
2018-12-17T16:18:13.240Z,14.47
2018-12-17T16:20:41.593Z,22.00
2018-12-17T16:23:09.321Z,19.13
2018-12-17T16:25:37.209Z,17.27
2018-12-17T16:28:05.479Z,20.43
2018-12-17T16:30:33.052Z,26.37
2018-12-17T16:33:01.395Z,23.67
2018-12-17T16:35:28.998Z,19.70
2018-12-17T16:37:56.919Z,20.87
2018-12-17T16:40:25.549Z,22.30
2018-12-17T16:42:53.116Z,21.33
2018-12-17T16:45:21.479Z,22.97
2018-12-17T16:47:49.521Z,15.47
2018-12-17T16:50:17.090Z,20.37
2018-12-17T16:52:44.675Z,24.33
2018-12-17T16:55:13.607Z,19.67
2018-12-17T16:57:41.196Z,24.43
2018-12-17T17:00:08.776Z,18.67
2018-12-17T17:02:36.772Z,14.73
2018-12-17T17:05:05.156Z,17.57
2018-12-17T17:07:32.728Z,18.40
2018-12-17T17:10:01.543Z,21.97
2018-12-17T17:12:29.131Z,22.37
2018-12-17T17:14:56.738Z,16.27
2018-12-17T17:17:24.615Z,22.63
2018-12-17T17:19:52.199Z,20.37
2018-12-17T17:22:19.768Z,16.80
2018-12-17T17:24:48.086Z,22.37
2018-12-17T17:27:15.662Z,20.83
2018-12-17T17:29:44.006Z,19.67
2018-12-17T17:32:12.053Z,19.87
2018-12-17T17:34:39.481Z,22.33
2018-12-17T17:37:07.820Z,19.63
2018-12-17T17:39:35.445Z,16.77
2018-12-17T17:42:03.020Z,24.63
2018-12-17T17:44:31.080Z,20.37
2018-12-17T17:46:58.891Z,19.47
2018-12-17T17:49:26.482Z,19.53
2018-12-17T17:51:54.061Z,19.27
2018-12-17T17:54:21.678Z,18.50
2018-12-17T17:56:49.302Z,24.33
2018-12-17T17:59:17.313Z,19.90
2018-12-17T18:01:44.951Z,19.83
2018-12-17T18:04:12.502Z,21.87
2018-12-17T18:06:40.129Z,19.60
2018-12-17T18:09:08.475Z,19.60
2018-12-17T18:11:36.100Z,21.97
2018-12-17T18:14:04.472Z,26.10
2018-12-17T18:16:32.133Z,22.00
2018-12-17T18:18:59.627Z,23.10
2018-12-17T18:21:27.936Z,21.30
2018-12-17T18:23:55.507Z,22.10
2018-12-17T18:26:23.238Z,24.47
2018-12-17T18:28:50.902Z,22.57
2018-12-17T18:31:18.500Z,24.63
2018-12-17T18:33:46.845Z,27.13
2018-12-17T18:36:14.957Z,22.17
2018-12-17T18:38:42.550Z,20.73
2018-12-17T18:41:10.128Z,25.70
2018-12-17T18:43:38.013Z,22.07
2018-12-17T18:46:05.610Z,23.17
2018-12-17T18:48:33.975Z,25.03
2018-12-17T18:51:02.953Z,18.23
2018-12-17T18:53:30.581Z,26.63
2018-12-17T18:55:58.896Z,30.83
2018-12-17T18:58:26.523Z,27.83
2018-12-17T19:00:54.105Z,25.60
2018-12-17T19:03:21.693Z,23.80
2018-12-17T19:05:50.693Z,22.00
2018-12-17T19:08:19.474Z,24.70
2018-12-17T19:10:52.622Z,22.47
2018-12-17T19:13:20.350Z,25.97
2018-12-17T19:15:47.906Z,20.97
2018-12-17T19:18:16.251Z,18.17
2018-12-17T19:20:44.918Z,32.90
2018-12-17T19:23:13.025Z,20.93
2018-12-17T19:25:40.648Z,25.33
2018-12-17T19:28:09.055Z,22.83
2018-12-17T19:30:36.648Z,21.10
2018-12-17T19:33:04.230Z,26.77
2018-12-17T19:35:31.898Z,22.37
2018-12-17T19:37:59.440Z,22.27
2018-12-17T19:40:27.260Z,19.67
2018-12-17T19:42:55.036Z,27.70
2018-12-17T19:45:22.771Z,22.53
2018-12-17T19:47:51.008Z,25.93
2018-12-17T19:50:19.114Z,28.33
2018-12-17T19:52:46.730Z,23.50
2018-12-17T19:55:15.869Z,27.63
2018-12-17T19:57:43.635Z,24.20
2018-12-17T20:00:11.230Z,26.90
2018-12-17T20:02:38.814Z,24.60
2018-12-17T20:05:07.192Z,25.00
2018-12-17T20:07:34.779Z,32.05
2018-12-17T20:10:02.413Z,32.33
2018-12-17T20:12:29.992Z,29.50
2018-12-17T20:14:59.038Z,29.40
2018-12-17T20:17:27.411Z,28.17
2018-12-17T20:19:55.038Z,28.33
2018-12-17T20:22:22.595Z,26.90
2018-12-17T20:24:51.003Z,24.90
2018-12-17T20:27:19.558Z,25.90
2018-12-17T20:29:50.427Z,23.70
2018-12-17T20:32:14.944Z,30.17
2018-12-17T20:34:42.525Z,30.60
2018-12-17T20:37:10.116Z,23.20
2018-12-17T20:39:38.501Z,25.87
2018-12-17T20:42:06.845Z,23.07
2018-12-17T20:44:35.257Z,23.47
2018-12-17T20:47:03.613Z,25.37
2018-12-17T20:49:31.188Z,28.53
2018-12-17T20:52:00.080Z,26.98
2018-12-17T20:54:27.656Z,19.43
2018-12-17T20:56:55.288Z,19.17
2018-12-17T20:59:22.941Z,24.10
2018-12-17T21:01:50.489Z,20.30
2018-12-17T21:04:18.326Z,19.77
2018-12-17T21:07:03.983Z,22.27
2018-12-17T21:09:31.883Z,21.37
2018-12-17T21:11:59.462Z,21.30
2018-12-17T21:14:27.081Z,21.10
2018-12-17T21:16:54.758Z,19.93
2018-12-17T21:19:22.382Z,23.20
2018-12-17T21:21:50.076Z,20.87
2018-12-17T21:24:18.520Z,11.97
2018-12-17T21:26:46.059Z,13.47
2018-12-17T21:29:13.849Z,17.30
2018-12-17T21:31:41.447Z,17.47
2018-12-17T21:34:08.991Z,15.40
2018-12-17T21:36:37.343Z,15.77
2018-12-17T21:39:04.991Z,14.07
2018-12-17T21:41:33.301Z,14.30
2018-12-17T21:44:01.578Z,12.00
2018-12-17T21:46:29.172Z,17.80
2018-12-17T21:48:59.784Z,19.95
2018-12-17T21:51:30.156Z,18.60
2018-12-17T21:53:59.268Z,19.57
2018-12-17T21:56:26.983Z,18.80
2018-12-17T21:58:55.026Z,16.27
2018-12-17T22:01:22.632Z,15.80
2018-12-17T22:03:50.325Z,19.23
2018-12-17T22:06:17.977Z,15.10
2018-12-17T22:08:45.557Z,12.10
2018-12-17T22:11:13.159Z,9.67
2018-12-17T22:13:40.770Z,16.57
2018-12-17T22:16:09.137Z,17.90
2018-12-17T22:18:36.739Z,17.53
2018-12-17T22:21:04.332Z,12.33
2018-12-17T22:23:31.966Z,19.73
2018-12-17T22:25:59.540Z,13.57
2018-12-17T22:28:27.115Z,16.03
2018-12-17T22:30:58.743Z,20.25
2018-12-17T22:33:26.512Z,14.23
2018-12-17T22:35:54.181Z,13.57
2018-12-17T22:38:24.768Z,9.93
2018-12-17T22:40:52.347Z,16.73
2018-12-17T22:43:20.067Z,15.17
2018-12-17T22:45:50.356Z,17.80
2018-12-17T22:48:18.038Z,13.83
2018-12-17T22:50:45.614Z,16.83
2018-12-17T22:53:14.051Z,15.57
2018-12-17T22:55:41.644Z,16.63
2018-12-17T22:58:09.250Z,19.13
2018-12-17T23:00:36.859Z,19.23
2018-12-17T23:03:04.440Z,16.80
2018-12-17T23:05:32.021Z,20.63
2018-12-17T23:08:00.414Z,14.33
2018-12-17T23:11:05.090Z,25.20
2018-12-17T23:14:09.493Z,21.50
2018-12-17T23:17:13.933Z,21.35
2018-12-17T23:19:41.549Z,26.43
2018-12-17T23:22:09.456Z,17.47
2018-12-17T23:24:37.085Z,12.27
2018-12-17T23:27:04.671Z,16.93
2018-12-17T23:29:32.258Z,18.73
2018-12-17T23:31:59.847Z,18.83
2018-12-17T23:34:27.473Z,12.63
2018-12-17T23:36:55.387Z,14.97
2018-12-17T23:39:29.165Z,15.10
2018-12-17T23:41:59.731Z,10.20
2018-12-17T23:44:27.373Z,15.97
2018-12-17T23:47:00.551Z,16.43
2018-12-17T23:49:28.533Z,12.73
2018-12-17T23:51:56.131Z,11.57
2018-12-17T23:54:23.703Z,9.63
2018-12-17T23:56:51.309Z,14.43
2018-12-17T23:59:18.901Z,12.20
